<?xml version="1.0" encoding="UTF-8" standalone="no" ?>
<gpx xmlns="http://www.topografix.com/GPX/1/1" xmlns:xsi="http://www.w3.org/2001/XMLSchema-instance" xsi:schemaLocation="http://www.topografix.com/GPX/1/1 http://www.topografix.com/GPX/1/1/gpx.xsd" version="1.1" creator="VisuGPX - https://www.visugpx.com">
  <metadata>
    <name>2020 Bretagne </name>
  </metadata>
  <trk>
    <name><![CDATA[20-08-07AM]]></name>
    <trkseg>
      <trkpt lat="48.3716" lon="-3.54419">
        <ele>184.71</ele>
        <time>2020-08-07T08:11:22Z</time>
      </trkpt>
      <trkpt lat="48.37162" lon="-3.54418">
        <ele>184.71</ele>
        <time>2020-08-07T08:11:23Z</time>
      </trkpt>
      <trkpt lat="48.37163" lon="-3.54417">
        <ele>184.71</ele>
        <time>2020-08-07T08:11:41Z</time>
      </trkpt>
      <trkpt lat="48.37164" lon="-3.54415">
        <ele>185.19</ele>
        <time>2020-08-07T08:12:00Z</time>
      </trkpt>
      <trkpt lat="48.37165" lon="-3.54413">
        <ele>185.67</ele>
        <time>2020-08-07T08:12:15Z</time>
      </trkpt>
      <trkpt lat="48.37166" lon="-3.54413">
        <ele>182.31</ele>
        <time>2020-08-07T08:12:31Z</time>
      </trkpt>
      <trkpt lat="48.37166" lon="-3.54413">
        <ele>186.15</ele>
        <time>2020-08-07T08:12:32Z</time>
      </trkpt>
      <trkpt lat="48.37165" lon="-3.54414">
        <ele>181.83</ele>
        <time>2020-08-07T08:12:37Z</time>
      </trkpt>
      <trkpt lat="48.37165" lon="-3.54414">
        <ele>187.11</ele>
        <time>2020-08-07T08:12:38Z</time>
      </trkpt>
      <trkpt lat="48.37165" lon="-3.54415">
        <ele>186.63</ele>
        <time>2020-08-07T08:12:57Z</time>
      </trkpt>
      <trkpt lat="48.37165" lon="-3.54415">
        <ele>182.31</ele>
        <time>2020-08-07T08:13:00Z</time>
      </trkpt>
      <trkpt lat="48.37165" lon="-3.54415">
        <ele>190</ele>
        <time>2020-08-07T08:13:01Z</time>
      </trkpt>
      <trkpt lat="48.37164" lon="-3.54416">
        <ele>180.38</ele>
        <time>2020-08-07T08:13:02Z</time>
      </trkpt>
      <trkpt lat="48.37164" lon="-3.54416">
        <ele>189.52</ele>
        <time>2020-08-07T08:13:03Z</time>
      </trkpt>
      <trkpt lat="48.37162" lon="-3.54415">
        <ele>185.67</ele>
        <time>2020-08-07T08:13:05Z</time>
      </trkpt>
      <trkpt lat="48.37161" lon="-3.54416">
        <ele>186.15</ele>
        <time>2020-08-07T08:13:06Z</time>
      </trkpt>
      <trkpt lat="48.37157" lon="-3.54415">
        <ele>187.11</ele>
        <time>2020-08-07T08:13:11Z</time>
      </trkpt>
      <trkpt lat="48.3715" lon="-3.54411">
        <ele>187.11</ele>
        <time>2020-08-07T08:13:23Z</time>
      </trkpt>
      <trkpt lat="48.37147" lon="-3.54409">
        <ele>188.08</ele>
        <time>2020-08-07T08:13:28Z</time>
      </trkpt>
      <trkpt lat="48.37146" lon="-3.54409">
        <ele>187.59</ele>
        <time>2020-08-07T08:13:30Z</time>
      </trkpt>
      <trkpt lat="48.37143" lon="-3.54405">
        <ele>188.08</ele>
        <time>2020-08-07T08:13:37Z</time>
      </trkpt>
      <trkpt lat="48.37137" lon="-3.54391">
        <ele>189.04</ele>
        <time>2020-08-07T08:13:51Z</time>
      </trkpt>
      <trkpt lat="48.37137" lon="-3.54384">
        <ele>190</ele>
        <time>2020-08-07T08:14:01Z</time>
      </trkpt>
      <trkpt lat="48.37139" lon="-3.54381">
        <ele>189.52</ele>
        <time>2020-08-07T08:14:04Z</time>
      </trkpt>
      <trkpt lat="48.37143" lon="-3.54368">
        <ele>190.96</ele>
        <time>2020-08-07T08:14:15Z</time>
      </trkpt>
      <trkpt lat="48.37147" lon="-3.54349">
        <ele>191.92</ele>
        <time>2020-08-07T08:14:30Z</time>
      </trkpt>
      <trkpt lat="48.37155" lon="-3.54335">
        <ele>192.4</ele>
        <time>2020-08-07T08:14:44Z</time>
      </trkpt>
      <trkpt lat="48.37166" lon="-3.54316">
        <ele>192.88</ele>
        <time>2020-08-07T08:15:01Z</time>
      </trkpt>
      <trkpt lat="48.37168" lon="-3.54312">
        <ele>193.36</ele>
        <time>2020-08-07T08:15:04Z</time>
      </trkpt>
      <trkpt lat="48.37169" lon="-3.54307">
        <ele>192.88</ele>
        <time>2020-08-07T08:15:07Z</time>
      </trkpt>
      <trkpt lat="48.37175" lon="-3.54292">
        <ele>192.88</ele>
        <time>2020-08-07T08:15:20Z</time>
      </trkpt>
      <trkpt lat="48.37175" lon="-3.54289">
        <ele>193.84</ele>
        <time>2020-08-07T08:15:22Z</time>
      </trkpt>
      <trkpt lat="48.37178" lon="-3.54282">
        <ele>192.88</ele>
        <time>2020-08-07T08:15:28Z</time>
      </trkpt>
      <trkpt lat="48.3718" lon="-3.54278">
        <ele>192.88</ele>
        <time>2020-08-07T08:15:32Z</time>
      </trkpt>
      <trkpt lat="48.37184" lon="-3.54269">
        <ele>192.88</ele>
        <time>2020-08-07T08:15:46Z</time>
      </trkpt>
      <trkpt lat="48.3719" lon="-3.54262">
        <ele>192.88</ele>
        <time>2020-08-07T08:15:58Z</time>
      </trkpt>
      <trkpt lat="48.37193" lon="-3.54254">
        <ele>193.36</ele>
        <time>2020-08-07T08:16:13Z</time>
      </trkpt>
      <trkpt lat="48.37192" lon="-3.54251">
        <ele>193.36</ele>
        <time>2020-08-07T08:16:27Z</time>
      </trkpt>
      <trkpt lat="48.37193" lon="-3.54247">
        <ele>193.84</ele>
        <time>2020-08-07T08:16:41Z</time>
      </trkpt>
      <trkpt lat="48.37193" lon="-3.54244">
        <ele>193.84</ele>
        <time>2020-08-07T08:16:43Z</time>
      </trkpt>
      <trkpt lat="48.3719" lon="-3.5423">
        <ele>194.8</ele>
        <time>2020-08-07T08:16:57Z</time>
      </trkpt>
      <trkpt lat="48.37188" lon="-3.54225">
        <ele>196.25</ele>
        <time>2020-08-07T08:17:13Z</time>
      </trkpt>
      <trkpt lat="48.37183" lon="-3.54212">
        <ele>196.73</ele>
        <time>2020-08-07T08:17:27Z</time>
      </trkpt>
      <trkpt lat="48.37182" lon="-3.5421">
        <ele>197.21</ele>
        <time>2020-08-07T08:17:40Z</time>
      </trkpt>
      <trkpt lat="48.37182" lon="-3.54203">
        <ele>197.21</ele>
        <time>2020-08-07T08:17:53Z</time>
      </trkpt>
      <trkpt lat="48.3718" lon="-3.54187">
        <ele>198.17</ele>
        <time>2020-08-07T08:18:07Z</time>
      </trkpt>
      <trkpt lat="48.37176" lon="-3.54178">
        <ele>198.17</ele>
        <time>2020-08-07T08:18:20Z</time>
      </trkpt>
      <trkpt lat="48.37173" lon="-3.54177">
        <ele>199.13</ele>
        <time>2020-08-07T08:18:49Z</time>
      </trkpt>
      <trkpt lat="48.37171" lon="-3.54176">
        <ele>199.61</ele>
        <time>2020-08-07T08:19:08Z</time>
      </trkpt>
      <trkpt lat="48.37171" lon="-3.54175">
        <ele>200.09</ele>
        <time>2020-08-07T08:19:34Z</time>
      </trkpt>
      <trkpt lat="48.37171" lon="-3.54174">
        <ele>200.57</ele>
        <time>2020-08-07T08:19:54Z</time>
      </trkpt>
      <trkpt lat="48.37169" lon="-3.54168">
        <ele>201.05</ele>
        <time>2020-08-07T08:20:17Z</time>
      </trkpt>
      <trkpt lat="48.37166" lon="-3.54156">
        <ele>201.53</ele>
        <time>2020-08-07T08:20:30Z</time>
      </trkpt>
      <trkpt lat="48.37166" lon="-3.54148">
        <ele>201.53</ele>
        <time>2020-08-07T08:20:46Z</time>
      </trkpt>
      <trkpt lat="48.37166" lon="-3.54145">
        <ele>202.01</ele>
        <time>2020-08-07T08:21:06Z</time>
      </trkpt>
      <trkpt lat="48.37165" lon="-3.54143">
        <ele>202.49</ele>
        <time>2020-08-07T08:21:23Z</time>
      </trkpt>
      <trkpt lat="48.37164" lon="-3.54143">
        <ele>202.49</ele>
        <time>2020-08-07T08:21:38Z</time>
      </trkpt>
      <trkpt lat="48.37163" lon="-3.54144">
        <ele>202.98</ele>
        <time>2020-08-07T08:21:53Z</time>
      </trkpt>
      <trkpt lat="48.37161" lon="-3.54155">
        <ele>202.98</ele>
        <time>2020-08-07T08:22:08Z</time>
      </trkpt>
      <trkpt lat="48.3716" lon="-3.54157">
        <ele>203.94</ele>
        <time>2020-08-07T08:22:21Z</time>
      </trkpt>
      <trkpt lat="48.3716" lon="-3.5416">
        <ele>204.42</ele>
        <time>2020-08-07T08:22:35Z</time>
      </trkpt>
      <trkpt lat="48.37156" lon="-3.54152">
        <ele>206.34</ele>
        <time>2020-08-07T08:22:50Z</time>
      </trkpt>
      <trkpt lat="48.37151" lon="-3.54144">
        <ele>207.3</ele>
        <time>2020-08-07T08:23:05Z</time>
      </trkpt>
      <trkpt lat="48.37151" lon="-3.54137">
        <ele>208.26</ele>
        <time>2020-08-07T08:23:19Z</time>
      </trkpt>
      <trkpt lat="48.37152" lon="-3.54128">
        <ele>208.26</ele>
        <time>2020-08-07T08:23:34Z</time>
      </trkpt>
      <trkpt lat="48.37152" lon="-3.54124">
        <ele>208.74</ele>
        <time>2020-08-07T08:23:49Z</time>
      </trkpt>
      <trkpt lat="48.37153" lon="-3.54119">
        <ele>208.74</ele>
        <time>2020-08-07T08:24:04Z</time>
      </trkpt>
      <trkpt lat="48.37155" lon="-3.54115">
        <ele>208.26</ele>
        <time>2020-08-07T08:24:17Z</time>
      </trkpt>
      <trkpt lat="48.37156" lon="-3.54114">
        <ele>209.22</ele>
        <time>2020-08-07T08:24:39Z</time>
      </trkpt>
      <trkpt lat="48.37157" lon="-3.54113">
        <ele>209.22</ele>
        <time>2020-08-07T08:25:10Z</time>
      </trkpt>
      <trkpt lat="48.37157" lon="-3.54107">
        <ele>209.22</ele>
        <time>2020-08-07T08:25:28Z</time>
      </trkpt>
      <trkpt lat="48.37157" lon="-3.54104">
        <ele>209.22</ele>
        <time>2020-08-07T08:25:40Z</time>
      </trkpt>
      <trkpt lat="48.37159" lon="-3.54103">
        <ele>209.7</ele>
        <time>2020-08-07T08:25:59Z</time>
      </trkpt>
      <trkpt lat="48.37158" lon="-3.54102">
        <ele>210.19</ele>
        <time>2020-08-07T08:26:11Z</time>
      </trkpt>
      <trkpt lat="48.37158" lon="-3.54103">
        <ele>210.67</ele>
        <time>2020-08-07T08:26:30Z</time>
      </trkpt>
      <trkpt lat="48.3716" lon="-3.54103">
        <ele>210.67</ele>
        <time>2020-08-07T08:26:45Z</time>
      </trkpt>
      <trkpt lat="48.37159" lon="-3.54104">
        <ele>210.67</ele>
        <time>2020-08-07T08:27:02Z</time>
      </trkpt>
      <trkpt lat="48.37159" lon="-3.54099">
        <ele>210.67</ele>
        <time>2020-08-07T08:27:06Z</time>
      </trkpt>
      <trkpt lat="48.37161" lon="-3.54082">
        <ele>210.19</ele>
        <time>2020-08-07T08:27:19Z</time>
      </trkpt>
      <trkpt lat="48.37162" lon="-3.54068">
        <ele>209.7</ele>
        <time>2020-08-07T08:27:27Z</time>
      </trkpt>
      <trkpt lat="48.3716" lon="-3.54043">
        <ele>207.78</ele>
        <time>2020-08-07T08:27:43Z</time>
      </trkpt>
      <trkpt lat="48.3716" lon="-3.54039">
        <ele>207.78</ele>
        <time>2020-08-07T08:27:45Z</time>
      </trkpt>
      <trkpt lat="48.37159" lon="-3.54033">
        <ele>206.82</ele>
        <time>2020-08-07T08:27:49Z</time>
      </trkpt>
      <trkpt lat="48.3716" lon="-3.54012">
        <ele>205.38</ele>
        <time>2020-08-07T08:28:03Z</time>
      </trkpt>
      <trkpt lat="48.37159" lon="-3.53999">
        <ele>203.94</ele>
        <time>2020-08-07T08:28:11Z</time>
      </trkpt>
      <trkpt lat="48.37154" lon="-3.53977">
        <ele>203.46</ele>
        <time>2020-08-07T08:28:24Z</time>
      </trkpt>
      <trkpt lat="48.37152" lon="-3.5395">
        <ele>202.01</ele>
        <time>2020-08-07T08:28:41Z</time>
      </trkpt>
      <trkpt lat="48.37153" lon="-3.53935">
        <ele>202.01</ele>
        <time>2020-08-07T08:28:55Z</time>
      </trkpt>
      <trkpt lat="48.37154" lon="-3.53934">
        <ele>202.01</ele>
        <time>2020-08-07T08:29:15Z</time>
      </trkpt>
      <trkpt lat="48.37153" lon="-3.53933">
        <ele>202.01</ele>
        <time>2020-08-07T08:29:35Z</time>
      </trkpt>
      <trkpt lat="48.37154" lon="-3.53919">
        <ele>201.53</ele>
        <time>2020-08-07T08:29:49Z</time>
      </trkpt>
      <trkpt lat="48.37154" lon="-3.53908">
        <ele>201.05</ele>
        <time>2020-08-07T08:30:02Z</time>
      </trkpt>
      <trkpt lat="48.37153" lon="-3.53906">
        <ele>200.09</ele>
        <time>2020-08-07T08:30:08Z</time>
      </trkpt>
      <trkpt lat="48.37153" lon="-3.53901">
        <ele>200.09</ele>
        <time>2020-08-07T08:30:11Z</time>
      </trkpt>
      <trkpt lat="48.37154" lon="-3.53891">
        <ele>199.61</ele>
        <time>2020-08-07T08:30:18Z</time>
      </trkpt>
      <trkpt lat="48.37154" lon="-3.53885">
        <ele>198.65</ele>
        <time>2020-08-07T08:30:22Z</time>
      </trkpt>
      <trkpt lat="48.37157" lon="-3.53868">
        <ele>197.21</ele>
        <time>2020-08-07T08:30:39Z</time>
      </trkpt>
      <trkpt lat="48.3716" lon="-3.53852">
        <ele>195.28</ele>
        <time>2020-08-07T08:30:54Z</time>
      </trkpt>
      <trkpt lat="48.37162" lon="-3.5384">
        <ele>193.84</ele>
        <time>2020-08-07T08:31:06Z</time>
      </trkpt>
      <trkpt lat="48.37168" lon="-3.53834">
        <ele>193.36</ele>
        <time>2020-08-07T08:31:14Z</time>
      </trkpt>
      <trkpt lat="48.37171" lon="-3.53832">
        <ele>192.88</ele>
        <time>2020-08-07T08:31:18Z</time>
      </trkpt>
      <trkpt lat="48.37178" lon="-3.53824">
        <ele>193.36</ele>
        <time>2020-08-07T08:31:31Z</time>
      </trkpt>
      <trkpt lat="48.37181" lon="-3.53818">
        <ele>193.36</ele>
        <time>2020-08-07T08:31:45Z</time>
      </trkpt>
      <trkpt lat="48.37183" lon="-3.53814">
        <ele>192.88</ele>
        <time>2020-08-07T08:32:01Z</time>
      </trkpt>
      <trkpt lat="48.37184" lon="-3.5381">
        <ele>191.92</ele>
        <time>2020-08-07T08:32:14Z</time>
      </trkpt>
      <trkpt lat="48.37184" lon="-3.5381">
        <ele>192.4</ele>
        <time>2020-08-07T08:32:18Z</time>
      </trkpt>
      <trkpt lat="48.37186" lon="-3.53796">
        <ele>191.44</ele>
        <time>2020-08-07T08:32:33Z</time>
      </trkpt>
      <trkpt lat="48.37185" lon="-3.53798">
        <ele>191.92</ele>
        <time>2020-08-07T08:33:02Z</time>
      </trkpt>
      <trkpt lat="48.37187" lon="-3.53793">
        <ele>191.92</ele>
        <time>2020-08-07T08:33:19Z</time>
      </trkpt>
      <trkpt lat="48.37188" lon="-3.53791">
        <ele>191.44</ele>
        <time>2020-08-07T08:33:35Z</time>
      </trkpt>
      <trkpt lat="48.37189" lon="-3.53786">
        <ele>191.92</ele>
        <time>2020-08-07T08:33:53Z</time>
      </trkpt>
      <trkpt lat="48.37189" lon="-3.53782">
        <ele>190.96</ele>
        <time>2020-08-07T08:34:12Z</time>
      </trkpt>
      <trkpt lat="48.37191" lon="-3.53772">
        <ele>191.44</ele>
        <time>2020-08-07T08:34:31Z</time>
      </trkpt>
      <trkpt lat="48.37193" lon="-3.53767">
        <ele>191.44</ele>
        <time>2020-08-07T08:35:04Z</time>
      </trkpt>
      <trkpt lat="48.37193" lon="-3.53765">
        <ele>191.44</ele>
        <time>2020-08-07T08:35:25Z</time>
      </trkpt>
      <trkpt lat="48.37193" lon="-3.53765">
        <ele>191.92</ele>
        <time>2020-08-07T08:35:57Z</time>
      </trkpt>
      <trkpt lat="48.37193" lon="-3.53763">
        <ele>192.4</ele>
        <time>2020-08-07T08:36:20Z</time>
      </trkpt>
      <trkpt lat="48.37192" lon="-3.5376">
        <ele>192.4</ele>
        <time>2020-08-07T08:36:39Z</time>
      </trkpt>
      <trkpt lat="48.37189" lon="-3.5376">
        <ele>192.4</ele>
        <time>2020-08-07T08:37:00Z</time>
      </trkpt>
      <trkpt lat="48.37188" lon="-3.53759">
        <ele>193.36</ele>
        <time>2020-08-07T08:37:22Z</time>
      </trkpt>
      <trkpt lat="48.37188" lon="-3.53759">
        <ele>193.36</ele>
        <time>2020-08-07T08:37:47Z</time>
      </trkpt>
      <trkpt lat="48.37188" lon="-3.53759">
        <ele>193.36</ele>
        <time>2020-08-07T08:38:05Z</time>
      </trkpt>
      <trkpt lat="48.37189" lon="-3.5376">
        <ele>193.36</ele>
        <time>2020-08-07T08:38:28Z</time>
      </trkpt>
      <trkpt lat="48.3719" lon="-3.53761">
        <ele>193.84</ele>
        <time>2020-08-07T08:38:45Z</time>
      </trkpt>
      <trkpt lat="48.37192" lon="-3.53763">
        <ele>194.32</ele>
        <time>2020-08-07T08:39:10Z</time>
      </trkpt>
      <trkpt lat="48.37195" lon="-3.53767">
        <ele>194.32</ele>
        <time>2020-08-07T08:39:32Z</time>
      </trkpt>
      <trkpt lat="48.37195" lon="-3.53768">
        <ele>194.8</ele>
        <time>2020-08-07T08:39:56Z</time>
      </trkpt>
      <trkpt lat="48.37196" lon="-3.5377">
        <ele>195.28</ele>
        <time>2020-08-07T08:40:23Z</time>
      </trkpt>
      <trkpt lat="48.37196" lon="-3.53771">
        <ele>194.8</ele>
        <time>2020-08-07T08:40:46Z</time>
      </trkpt>
      <trkpt lat="48.37195" lon="-3.53772">
        <ele>194.8</ele>
        <time>2020-08-07T08:41:10Z</time>
      </trkpt>
      <trkpt lat="48.37195" lon="-3.53772">
        <ele>195.28</ele>
        <time>2020-08-07T08:41:34Z</time>
      </trkpt>
      <trkpt lat="48.37195" lon="-3.53774">
        <ele>195.77</ele>
        <time>2020-08-07T08:42:07Z</time>
      </trkpt>
      <trkpt lat="48.37195" lon="-3.53775">
        <ele>196.25</ele>
        <time>2020-08-07T08:42:30Z</time>
      </trkpt>
      <trkpt lat="48.37195" lon="-3.53776">
        <ele>196.25</ele>
        <time>2020-08-07T08:42:52Z</time>
      </trkpt>
      <trkpt lat="48.37192" lon="-3.53778">
        <ele>196.25</ele>
        <time>2020-08-07T08:43:07Z</time>
      </trkpt>
      <trkpt lat="48.37186" lon="-3.53789">
        <ele>197.21</ele>
        <time>2020-08-07T08:43:22Z</time>
      </trkpt>
      <trkpt lat="48.37184" lon="-3.53783">
        <ele>196.73</ele>
        <time>2020-08-07T08:43:28Z</time>
      </trkpt>
      <trkpt lat="48.37182" lon="-3.53767">
        <ele>196.25</ele>
        <time>2020-08-07T08:43:39Z</time>
      </trkpt>
      <trkpt lat="48.37181" lon="-3.53756">
        <ele>194.32</ele>
        <time>2020-08-07T08:43:54Z</time>
      </trkpt>
      <trkpt lat="48.37183" lon="-3.53748">
        <ele>193.84</ele>
        <time>2020-08-07T08:44:11Z</time>
      </trkpt>
      <trkpt lat="48.37183" lon="-3.53746">
        <ele>194.32</ele>
        <time>2020-08-07T08:44:30Z</time>
      </trkpt>
      <trkpt lat="48.37182" lon="-3.53744">
        <ele>194.32</ele>
        <time>2020-08-07T08:44:44Z</time>
      </trkpt>
      <trkpt lat="48.37187" lon="-3.53725">
        <ele>192.4</ele>
        <time>2020-08-07T08:44:58Z</time>
      </trkpt>
      <trkpt lat="48.37186" lon="-3.53712">
        <ele>191.44</ele>
        <time>2020-08-07T08:45:13Z</time>
      </trkpt>
      <trkpt lat="48.37184" lon="-3.5371">
        <ele>190.48</ele>
        <time>2020-08-07T08:45:28Z</time>
      </trkpt>
      <trkpt lat="48.37184" lon="-3.53711">
        <ele>191.44</ele>
        <time>2020-08-07T08:45:44Z</time>
      </trkpt>
      <trkpt lat="48.37184" lon="-3.53711">
        <ele>191.44</ele>
        <time>2020-08-07T08:45:59Z</time>
      </trkpt>
      <trkpt lat="48.37183" lon="-3.53711">
        <ele>191.44</ele>
        <time>2020-08-07T08:46:16Z</time>
      </trkpt>
      <trkpt lat="48.37184" lon="-3.53712">
        <ele>191.44</ele>
        <time>2020-08-07T08:46:40Z</time>
      </trkpt>
      <trkpt lat="48.37185" lon="-3.53714">
        <ele>192.88</ele>
        <time>2020-08-07T08:46:55Z</time>
      </trkpt>
      <trkpt lat="48.37189" lon="-3.5372">
        <ele>193.84</ele>
        <time>2020-08-07T08:47:11Z</time>
      </trkpt>
      <trkpt lat="48.37194" lon="-3.53724">
        <ele>194.8</ele>
        <time>2020-08-07T08:47:23Z</time>
      </trkpt>
      <trkpt lat="48.372" lon="-3.5373">
        <ele>195.77</ele>
        <time>2020-08-07T08:47:35Z</time>
      </trkpt>
      <trkpt lat="48.37204" lon="-3.53734">
        <ele>196.25</ele>
        <time>2020-08-07T08:47:45Z</time>
      </trkpt>
      <trkpt lat="48.37205" lon="-3.5374">
        <ele>196.73</ele>
        <time>2020-08-07T08:47:55Z</time>
      </trkpt>
      <trkpt lat="48.37205" lon="-3.53748">
        <ele>197.69</ele>
        <time>2020-08-07T08:48:06Z</time>
      </trkpt>
      <trkpt lat="48.37204" lon="-3.53751">
        <ele>197.69</ele>
        <time>2020-08-07T08:48:13Z</time>
      </trkpt>
      <trkpt lat="48.37203" lon="-3.53753">
        <ele>198.17</ele>
        <time>2020-08-07T08:48:15Z</time>
      </trkpt>
      <trkpt lat="48.37203" lon="-3.53756">
        <ele>198.65</ele>
        <time>2020-08-07T08:48:17Z</time>
      </trkpt>
      <trkpt lat="48.37203" lon="-3.53763">
        <ele>198.65</ele>
        <time>2020-08-07T08:48:30Z</time>
      </trkpt>
      <trkpt lat="48.37204" lon="-3.53766">
        <ele>199.13</ele>
        <time>2020-08-07T08:48:44Z</time>
      </trkpt>
      <trkpt lat="48.37204" lon="-3.53768">
        <ele>199.13</ele>
        <time>2020-08-07T08:48:58Z</time>
      </trkpt>
      <trkpt lat="48.37202" lon="-3.53778">
        <ele>200.09</ele>
        <time>2020-08-07T08:49:11Z</time>
      </trkpt>
      <trkpt lat="48.372" lon="-3.53788">
        <ele>199.61</ele>
        <time>2020-08-07T08:49:24Z</time>
      </trkpt>
      <trkpt lat="48.37196" lon="-3.53797">
        <ele>200.57</ele>
        <time>2020-08-07T08:49:37Z</time>
      </trkpt>
      <trkpt lat="48.37189" lon="-3.53804">
        <ele>201.53</ele>
        <time>2020-08-07T08:49:49Z</time>
      </trkpt>
      <trkpt lat="48.37187" lon="-3.53808">
        <ele>201.53</ele>
        <time>2020-08-07T08:50:02Z</time>
      </trkpt>
      <trkpt lat="48.37185" lon="-3.53813">
        <ele>201.53</ele>
        <time>2020-08-07T08:50:22Z</time>
      </trkpt>
      <trkpt lat="48.37182" lon="-3.53821">
        <ele>202.01</ele>
        <time>2020-08-07T08:50:35Z</time>
      </trkpt>
      <trkpt lat="48.3718" lon="-3.53823">
        <ele>202.49</ele>
        <time>2020-08-07T08:50:39Z</time>
      </trkpt>
      <trkpt lat="48.37179" lon="-3.53827">
        <ele>202.49</ele>
        <time>2020-08-07T08:50:56Z</time>
      </trkpt>
      <trkpt lat="48.37172" lon="-3.53828">
        <ele>202.49</ele>
        <time>2020-08-07T08:51:10Z</time>
      </trkpt>
      <trkpt lat="48.37172" lon="-3.53828">
        <ele>202.49</ele>
        <time>2020-08-07T08:51:11Z</time>
      </trkpt>
      <trkpt lat="48.37167" lon="-3.53833">
        <ele>202.98</ele>
        <time>2020-08-07T08:51:17Z</time>
      </trkpt>
      <trkpt lat="48.37158" lon="-3.5384">
        <ele>204.9</ele>
        <time>2020-08-07T08:51:30Z</time>
      </trkpt>
      <trkpt lat="48.37151" lon="-3.53851">
        <ele>205.86</ele>
        <time>2020-08-07T08:51:43Z</time>
      </trkpt>
      <trkpt lat="48.3715" lon="-3.53863">
        <ele>207.3</ele>
        <time>2020-08-07T08:51:55Z</time>
      </trkpt>
      <trkpt lat="48.37149" lon="-3.53875">
        <ele>208.74</ele>
        <time>2020-08-07T08:52:09Z</time>
      </trkpt>
      <trkpt lat="48.37147" lon="-3.53886">
        <ele>210.67</ele>
        <time>2020-08-07T08:52:22Z</time>
      </trkpt>
      <trkpt lat="48.37144" lon="-3.53899">
        <ele>213.55</ele>
        <time>2020-08-07T08:52:39Z</time>
      </trkpt>
      <trkpt lat="48.37139" lon="-3.53906">
        <ele>214.51</ele>
        <time>2020-08-07T08:52:52Z</time>
      </trkpt>
      <trkpt lat="48.3714" lon="-3.53907">
        <ele>214.99</ele>
        <time>2020-08-07T08:53:08Z</time>
      </trkpt>
      <trkpt lat="48.37137" lon="-3.53913">
        <ele>215.95</ele>
        <time>2020-08-07T08:53:23Z</time>
      </trkpt>
      <trkpt lat="48.37131" lon="-3.53922">
        <ele>217.88</ele>
        <time>2020-08-07T08:53:37Z</time>
      </trkpt>
      <trkpt lat="48.37127" lon="-3.53931">
        <ele>219.8</ele>
        <time>2020-08-07T08:53:50Z</time>
      </trkpt>
      <trkpt lat="48.37125" lon="-3.53936">
        <ele>219.8</ele>
        <time>2020-08-07T08:54:02Z</time>
      </trkpt>
      <trkpt lat="48.37125" lon="-3.53938">
        <ele>220.28</ele>
        <time>2020-08-07T08:54:04Z</time>
      </trkpt>
      <trkpt lat="48.37121" lon="-3.53949">
        <ele>222.68</ele>
        <time>2020-08-07T08:54:18Z</time>
      </trkpt>
      <trkpt lat="48.37116" lon="-3.53964">
        <ele>224.12</ele>
        <time>2020-08-07T08:54:33Z</time>
      </trkpt>
      <trkpt lat="48.37112" lon="-3.53973">
        <ele>225.57</ele>
        <time>2020-08-07T08:54:45Z</time>
      </trkpt>
      <trkpt lat="48.37109" lon="-3.53988">
        <ele>227.49</ele>
        <time>2020-08-07T08:54:59Z</time>
      </trkpt>
      <trkpt lat="48.37107" lon="-3.53997">
        <ele>227.97</ele>
        <time>2020-08-07T08:55:11Z</time>
      </trkpt>
      <trkpt lat="48.371" lon="-3.54008">
        <ele>229.41</ele>
        <time>2020-08-07T08:55:23Z</time>
      </trkpt>
      <trkpt lat="48.37096" lon="-3.54013">
        <ele>229.41</ele>
        <time>2020-08-07T08:55:35Z</time>
      </trkpt>
      <trkpt lat="48.37096" lon="-3.54016">
        <ele>229.89</ele>
        <time>2020-08-07T08:55:51Z</time>
      </trkpt>
      <trkpt lat="48.37094" lon="-3.54016">
        <ele>229.89</ele>
        <time>2020-08-07T08:56:04Z</time>
      </trkpt>
      <trkpt lat="48.37095" lon="-3.54023">
        <ele>230.37</ele>
        <time>2020-08-07T08:56:23Z</time>
      </trkpt>
      <trkpt lat="48.37096" lon="-3.54026">
        <ele>230.85</ele>
        <time>2020-08-07T08:56:35Z</time>
      </trkpt>
      <trkpt lat="48.37096" lon="-3.54024">
        <ele>230.37</ele>
        <time>2020-08-07T08:56:57Z</time>
      </trkpt>
      <trkpt lat="48.37092" lon="-3.54023">
        <ele>230.85</ele>
        <time>2020-08-07T08:57:07Z</time>
      </trkpt>
      <trkpt lat="48.37085" lon="-3.54034">
        <ele>231.81</ele>
        <time>2020-08-07T08:57:23Z</time>
      </trkpt>
      <trkpt lat="48.37085" lon="-3.5404">
        <ele>234.22</ele>
        <time>2020-08-07T08:57:37Z</time>
      </trkpt>
      <trkpt lat="48.37082" lon="-3.54042">
        <ele>234.7</ele>
        <time>2020-08-07T08:57:49Z</time>
      </trkpt>
      <trkpt lat="48.37076" lon="-3.54047">
        <ele>234.7</ele>
        <time>2020-08-07T08:58:03Z</time>
      </trkpt>
      <trkpt lat="48.37073" lon="-3.54052">
        <ele>234.7</ele>
        <time>2020-08-07T08:58:22Z</time>
      </trkpt>
      <trkpt lat="48.37073" lon="-3.54057">
        <ele>234.7</ele>
        <time>2020-08-07T08:58:37Z</time>
      </trkpt>
      <trkpt lat="48.37073" lon="-3.54065">
        <ele>235.66</ele>
        <time>2020-08-07T08:58:51Z</time>
      </trkpt>
      <trkpt lat="48.37074" lon="-3.54065">
        <ele>235.18</ele>
        <time>2020-08-07T08:59:03Z</time>
      </trkpt>
      <trkpt lat="48.37074" lon="-3.54066">
        <ele>235.18</ele>
        <time>2020-08-07T08:59:25Z</time>
      </trkpt>
      <trkpt lat="48.37078" lon="-3.54071">
        <ele>235.18</ele>
        <time>2020-08-07T08:59:37Z</time>
      </trkpt>
      <trkpt lat="48.37081" lon="-3.54073">
        <ele>235.66</ele>
        <time>2020-08-07T08:59:59Z</time>
      </trkpt>
      <trkpt lat="48.37083" lon="-3.54072">
        <ele>235.66</ele>
        <time>2020-08-07T09:00:14Z</time>
      </trkpt>
      <trkpt lat="48.37085" lon="-3.54071">
        <ele>235.66</ele>
        <time>2020-08-07T09:00:41Z</time>
      </trkpt>
      <trkpt lat="48.37085" lon="-3.54072">
        <ele>236.14</ele>
        <time>2020-08-07T09:01:02Z</time>
      </trkpt>
      <trkpt lat="48.37086" lon="-3.54072">
        <ele>236.14</ele>
        <time>2020-08-07T09:01:24Z</time>
      </trkpt>
      <trkpt lat="48.37087" lon="-3.54072">
        <ele>236.62</ele>
        <time>2020-08-07T09:01:49Z</time>
      </trkpt>
      <trkpt lat="48.37088" lon="-3.5407">
        <ele>235.66</ele>
        <time>2020-08-07T09:02:02Z</time>
      </trkpt>
      <trkpt lat="48.3709" lon="-3.54061">
        <ele>235.66</ele>
        <time>2020-08-07T09:02:14Z</time>
      </trkpt>
      <trkpt lat="48.3709" lon="-3.54049">
        <ele>235.66</ele>
        <time>2020-08-07T09:02:28Z</time>
      </trkpt>
      <trkpt lat="48.37087" lon="-3.54041">
        <ele>234.22</ele>
        <time>2020-08-07T09:02:43Z</time>
      </trkpt>
      <trkpt lat="48.37087" lon="-3.54029">
        <ele>232.3</ele>
        <time>2020-08-07T09:02:56Z</time>
      </trkpt>
      <trkpt lat="48.37085" lon="-3.54023">
        <ele>232.3</ele>
        <time>2020-08-07T09:03:09Z</time>
      </trkpt>
      <trkpt lat="48.37077" lon="-3.5402">
        <ele>232.3</ele>
        <time>2020-08-07T09:03:21Z</time>
      </trkpt>
      <trkpt lat="48.37072" lon="-3.54021">
        <ele>231.81</ele>
        <time>2020-08-07T09:03:32Z</time>
      </trkpt>
      <trkpt lat="48.37064" lon="-3.54026">
        <ele>231.33</ele>
        <time>2020-08-07T09:03:44Z</time>
      </trkpt>
      <trkpt lat="48.37056" lon="-3.54028">
        <ele>230.37</ele>
        <time>2020-08-07T09:03:58Z</time>
      </trkpt>
      <trkpt lat="48.37051" lon="-3.54028">
        <ele>229.89</ele>
        <time>2020-08-07T09:04:10Z</time>
      </trkpt>
      <trkpt lat="48.37046" lon="-3.54027">
        <ele>229.41</ele>
        <time>2020-08-07T09:04:24Z</time>
      </trkpt>
      <trkpt lat="48.37044" lon="-3.54026">
        <ele>229.89</ele>
        <time>2020-08-07T09:04:36Z</time>
      </trkpt>
      <trkpt lat="48.37046" lon="-3.54029">
        <ele>229.89</ele>
        <time>2020-08-07T09:04:50Z</time>
      </trkpt>
      <trkpt lat="48.37046" lon="-3.5403">
        <ele>230.37</ele>
        <time>2020-08-07T09:05:05Z</time>
      </trkpt>
      <trkpt lat="48.37047" lon="-3.54031">
        <ele>230.37</ele>
        <time>2020-08-07T09:05:27Z</time>
      </trkpt>
      <trkpt lat="48.37044" lon="-3.5403">
        <ele>229.89</ele>
        <time>2020-08-07T09:05:44Z</time>
      </trkpt>
      <trkpt lat="48.37042" lon="-3.54024">
        <ele>229.41</ele>
        <time>2020-08-07T09:05:55Z</time>
      </trkpt>
      <trkpt lat="48.37041" lon="-3.54023">
        <ele>229.89</ele>
        <time>2020-08-07T09:05:56Z</time>
      </trkpt>
      <trkpt lat="48.37039" lon="-3.54023">
        <ele>229.41</ele>
        <time>2020-08-07T09:05:58Z</time>
      </trkpt>
      <trkpt lat="48.37033" lon="-3.5402">
        <ele>228.93</ele>
        <time>2020-08-07T09:06:13Z</time>
      </trkpt>
      <trkpt lat="48.37028" lon="-3.54015">
        <ele>228.45</ele>
        <time>2020-08-07T09:06:25Z</time>
      </trkpt>
      <trkpt lat="48.37016" lon="-3.5401">
        <ele>227.01</ele>
        <time>2020-08-07T09:06:41Z</time>
      </trkpt>
      <trkpt lat="48.37007" lon="-3.54004">
        <ele>226.05</ele>
        <time>2020-08-07T09:06:54Z</time>
      </trkpt>
      <trkpt lat="48.37005" lon="-3.53998">
        <ele>226.53</ele>
        <time>2020-08-07T09:07:08Z</time>
      </trkpt>
      <trkpt lat="48.37005" lon="-3.53997">
        <ele>226.05</ele>
        <time>2020-08-07T09:07:23Z</time>
      </trkpt>
      <trkpt lat="48.37001" lon="-3.53994">
        <ele>226.05</ele>
        <time>2020-08-07T09:07:35Z</time>
      </trkpt>
      <trkpt lat="48.37" lon="-3.53978">
        <ele>225.09</ele>
        <time>2020-08-07T09:07:50Z</time>
      </trkpt>
      <trkpt lat="48.36999" lon="-3.53969">
        <ele>224.12</ele>
        <time>2020-08-07T09:08:04Z</time>
      </trkpt>
      <trkpt lat="48.36999" lon="-3.53969">
        <ele>224.12</ele>
        <time>2020-08-07T09:08:15Z</time>
      </trkpt>
      <trkpt lat="48.37" lon="-3.53966">
        <ele>224.61</ele>
        <time>2020-08-07T09:08:29Z</time>
      </trkpt>
      <trkpt lat="48.37001" lon="-3.53964">
        <ele>224.61</ele>
        <time>2020-08-07T09:08:40Z</time>
      </trkpt>
      <trkpt lat="48.36999" lon="-3.53964">
        <ele>224.12</ele>
        <time>2020-08-07T09:08:53Z</time>
      </trkpt>
      <trkpt lat="48.36999" lon="-3.53963">
        <ele>223.64</ele>
        <time>2020-08-07T09:09:06Z</time>
      </trkpt>
      <trkpt lat="48.36995" lon="-3.53956">
        <ele>222.68</ele>
        <time>2020-08-07T09:09:12Z</time>
      </trkpt>
      <trkpt lat="48.36991" lon="-3.53945">
        <ele>221.72</ele>
        <time>2020-08-07T09:09:21Z</time>
      </trkpt>
      <trkpt lat="48.36984" lon="-3.53939">
        <ele>220.28</ele>
        <time>2020-08-07T09:09:34Z</time>
      </trkpt>
      <trkpt lat="48.36982" lon="-3.53935">
        <ele>220.76</ele>
        <time>2020-08-07T09:09:45Z</time>
      </trkpt>
      <trkpt lat="48.36979" lon="-3.53926">
        <ele>219.32</ele>
        <time>2020-08-07T09:09:57Z</time>
      </trkpt>
      <trkpt lat="48.36972" lon="-3.5391">
        <ele>217.4</ele>
        <time>2020-08-07T09:10:11Z</time>
      </trkpt>
      <trkpt lat="48.3697" lon="-3.53905">
        <ele>216.91</ele>
        <time>2020-08-07T09:10:25Z</time>
      </trkpt>
      <trkpt lat="48.36968" lon="-3.53898">
        <ele>215.95</ele>
        <time>2020-08-07T09:10:40Z</time>
      </trkpt>
      <trkpt lat="48.36965" lon="-3.53893">
        <ele>215.47</ele>
        <time>2020-08-07T09:10:52Z</time>
      </trkpt>
      <trkpt lat="48.36959" lon="-3.5388">
        <ele>214.03</ele>
        <time>2020-08-07T09:11:06Z</time>
      </trkpt>
      <trkpt lat="48.36952" lon="-3.53868">
        <ele>212.59</ele>
        <time>2020-08-07T09:11:21Z</time>
      </trkpt>
      <trkpt lat="48.36947" lon="-3.53855">
        <ele>211.63</ele>
        <time>2020-08-07T09:11:38Z</time>
      </trkpt>
      <trkpt lat="48.36944" lon="-3.53845">
        <ele>209.7</ele>
        <time>2020-08-07T09:11:53Z</time>
      </trkpt>
      <trkpt lat="48.36944" lon="-3.53841">
        <ele>209.7</ele>
        <time>2020-08-07T09:12:15Z</time>
      </trkpt>
      <trkpt lat="48.36944" lon="-3.53839">
        <ele>209.7</ele>
        <time>2020-08-07T09:12:31Z</time>
      </trkpt>
      <trkpt lat="48.36941" lon="-3.53842">
        <ele>209.7</ele>
        <time>2020-08-07T09:12:44Z</time>
      </trkpt>
      <trkpt lat="48.36939" lon="-3.53846">
        <ele>209.7</ele>
        <time>2020-08-07T09:12:50Z</time>
      </trkpt>
      <trkpt lat="48.36928" lon="-3.53868">
        <ele>210.19</ele>
        <time>2020-08-07T09:13:07Z</time>
      </trkpt>
      <trkpt lat="48.36926" lon="-3.53873">
        <ele>210.67</ele>
        <time>2020-08-07T09:13:11Z</time>
      </trkpt>
      <trkpt lat="48.36926" lon="-3.53876">
        <ele>210.67</ele>
        <time>2020-08-07T09:13:13Z</time>
      </trkpt>
      <trkpt lat="48.36923" lon="-3.53892">
        <ele>212.11</ele>
        <time>2020-08-07T09:13:27Z</time>
      </trkpt>
      <trkpt lat="48.36921" lon="-3.53903">
        <ele>212.11</ele>
        <time>2020-08-07T09:13:41Z</time>
      </trkpt>
      <trkpt lat="48.36919" lon="-3.53917">
        <ele>213.07</ele>
        <time>2020-08-07T09:13:55Z</time>
      </trkpt>
      <trkpt lat="48.36917" lon="-3.53932">
        <ele>212.59</ele>
        <time>2020-08-07T09:14:08Z</time>
      </trkpt>
      <trkpt lat="48.36916" lon="-3.53945">
        <ele>213.07</ele>
        <time>2020-08-07T09:14:21Z</time>
      </trkpt>
      <trkpt lat="48.36917" lon="-3.53952">
        <ele>213.55</ele>
        <time>2020-08-07T09:14:35Z</time>
      </trkpt>
      <trkpt lat="48.36918" lon="-3.53955">
        <ele>213.55</ele>
        <time>2020-08-07T09:14:50Z</time>
      </trkpt>
      <trkpt lat="48.36918" lon="-3.53957">
        <ele>213.55</ele>
        <time>2020-08-07T09:15:13Z</time>
      </trkpt>
      <trkpt lat="48.36916" lon="-3.53967">
        <ele>213.55</ele>
        <time>2020-08-07T09:15:34Z</time>
      </trkpt>
      <trkpt lat="48.36915" lon="-3.53969">
        <ele>213.55</ele>
        <time>2020-08-07T09:15:53Z</time>
      </trkpt>
      <trkpt lat="48.36914" lon="-3.53969">
        <ele>214.03</ele>
        <time>2020-08-07T09:16:19Z</time>
      </trkpt>
      <trkpt lat="48.36914" lon="-3.5397">
        <ele>214.03</ele>
        <time>2020-08-07T09:16:42Z</time>
      </trkpt>
      <trkpt lat="48.36914" lon="-3.53971">
        <ele>214.51</ele>
        <time>2020-08-07T09:16:59Z</time>
      </trkpt>
      <trkpt lat="48.36914" lon="-3.53972">
        <ele>213.55</ele>
        <time>2020-08-07T09:17:16Z</time>
      </trkpt>
      <trkpt lat="48.3691" lon="-3.53973">
        <ele>213.07</ele>
        <time>2020-08-07T09:17:26Z</time>
      </trkpt>
      <trkpt lat="48.36908" lon="-3.53981">
        <ele>213.07</ele>
        <time>2020-08-07T09:17:41Z</time>
      </trkpt>
      <trkpt lat="48.36907" lon="-3.53986">
        <ele>213.07</ele>
        <time>2020-08-07T09:18:01Z</time>
      </trkpt>
      <trkpt lat="48.36904" lon="-3.53991">
        <ele>212.59</ele>
        <time>2020-08-07T09:18:15Z</time>
      </trkpt>
      <trkpt lat="48.36903" lon="-3.53993">
        <ele>213.07</ele>
        <time>2020-08-07T09:18:36Z</time>
      </trkpt>
      <trkpt lat="48.36902" lon="-3.53996">
        <ele>213.07</ele>
        <time>2020-08-07T09:18:55Z</time>
      </trkpt>
      <trkpt lat="48.36898" lon="-3.54007">
        <ele>212.11</ele>
        <time>2020-08-07T09:19:09Z</time>
      </trkpt>
      <trkpt lat="48.36893" lon="-3.5402">
        <ele>211.63</ele>
        <time>2020-08-07T09:19:24Z</time>
      </trkpt>
      <trkpt lat="48.3689" lon="-3.54025">
        <ele>212.11</ele>
        <time>2020-08-07T09:19:45Z</time>
      </trkpt>
      <trkpt lat="48.36889" lon="-3.54027">
        <ele>211.63</ele>
        <time>2020-08-07T09:19:58Z</time>
      </trkpt>
      <trkpt lat="48.36887" lon="-3.54034">
        <ele>211.15</ele>
        <time>2020-08-07T09:20:12Z</time>
      </trkpt>
      <trkpt lat="48.36879" lon="-3.54056">
        <ele>211.15</ele>
        <time>2020-08-07T09:20:28Z</time>
      </trkpt>
      <trkpt lat="48.36875" lon="-3.54071">
        <ele>210.67</ele>
        <time>2020-08-07T09:20:44Z</time>
      </trkpt>
      <trkpt lat="48.36871" lon="-3.54082">
        <ele>211.15</ele>
        <time>2020-08-07T09:21:06Z</time>
      </trkpt>
      <trkpt lat="48.3687" lon="-3.54089">
        <ele>210.67</ele>
        <time>2020-08-07T09:21:20Z</time>
      </trkpt>
      <trkpt lat="48.36869" lon="-3.54091">
        <ele>210.67</ele>
        <time>2020-08-07T09:21:37Z</time>
      </trkpt>
      <trkpt lat="48.36865" lon="-3.54105">
        <ele>210.19</ele>
        <time>2020-08-07T09:21:52Z</time>
      </trkpt>
      <trkpt lat="48.36861" lon="-3.54118">
        <ele>209.22</ele>
        <time>2020-08-07T09:22:03Z</time>
      </trkpt>
      <trkpt lat="48.36858" lon="-3.54137">
        <ele>209.7</ele>
        <time>2020-08-07T09:22:16Z</time>
      </trkpt>
      <trkpt lat="48.36859" lon="-3.54144">
        <ele>210.19</ele>
        <time>2020-08-07T09:22:27Z</time>
      </trkpt>
      <trkpt lat="48.36869" lon="-3.54153">
        <ele>211.15</ele>
        <time>2020-08-07T09:22:41Z</time>
      </trkpt>
      <trkpt lat="48.36872" lon="-3.54162">
        <ele>211.63</ele>
        <time>2020-08-07T09:22:56Z</time>
      </trkpt>
      <trkpt lat="48.36872" lon="-3.54161">
        <ele>212.11</ele>
        <time>2020-08-07T09:23:18Z</time>
      </trkpt>
      <trkpt lat="48.36875" lon="-3.54158">
        <ele>212.11</ele>
        <time>2020-08-07T09:23:30Z</time>
      </trkpt>
      <trkpt lat="48.36877" lon="-3.54156">
        <ele>213.07</ele>
        <time>2020-08-07T09:23:43Z</time>
      </trkpt>
      <trkpt lat="48.36879" lon="-3.54153">
        <ele>212.59</ele>
        <time>2020-08-07T09:24:00Z</time>
      </trkpt>
      <trkpt lat="48.36881" lon="-3.5415">
        <ele>213.55</ele>
        <time>2020-08-07T09:24:15Z</time>
      </trkpt>
      <trkpt lat="48.36882" lon="-3.54142">
        <ele>213.07</ele>
        <time>2020-08-07T09:24:32Z</time>
      </trkpt>
      <trkpt lat="48.36889" lon="-3.54131">
        <ele>214.03</ele>
        <time>2020-08-07T09:24:46Z</time>
      </trkpt>
      <trkpt lat="48.36892" lon="-3.54122">
        <ele>214.03</ele>
        <time>2020-08-07T09:25:00Z</time>
      </trkpt>
      <trkpt lat="48.36891" lon="-3.54118">
        <ele>214.03</ele>
        <time>2020-08-07T09:25:12Z</time>
      </trkpt>
      <trkpt lat="48.36892" lon="-3.54115">
        <ele>214.03</ele>
        <time>2020-08-07T09:25:19Z</time>
      </trkpt>
      <trkpt lat="48.36897" lon="-3.54103">
        <ele>214.51</ele>
        <time>2020-08-07T09:25:33Z</time>
      </trkpt>
      <trkpt lat="48.36902" lon="-3.54089">
        <ele>214.99</ele>
        <time>2020-08-07T09:25:48Z</time>
      </trkpt>
      <trkpt lat="48.36902" lon="-3.54081">
        <ele>214.99</ele>
        <time>2020-08-07T09:26:02Z</time>
      </trkpt>
      <trkpt lat="48.36906" lon="-3.54082">
        <ele>215.95</ele>
        <time>2020-08-07T09:26:16Z</time>
      </trkpt>
      <trkpt lat="48.36909" lon="-3.54075">
        <ele>216.43</ele>
        <time>2020-08-07T09:26:27Z</time>
      </trkpt>
      <trkpt lat="48.36914" lon="-3.5406">
        <ele>216.43</ele>
        <time>2020-08-07T09:26:41Z</time>
      </trkpt>
      <trkpt lat="48.36921" lon="-3.54051">
        <ele>216.91</ele>
        <time>2020-08-07T09:26:56Z</time>
      </trkpt>
      <trkpt lat="48.36929" lon="-3.54048">
        <ele>218.36</ele>
        <time>2020-08-07T09:27:09Z</time>
      </trkpt>
      <trkpt lat="48.36936" lon="-3.54048">
        <ele>218.84</ele>
        <time>2020-08-07T09:27:21Z</time>
      </trkpt>
      <trkpt lat="48.36943" lon="-3.54044">
        <ele>219.8</ele>
        <time>2020-08-07T09:27:35Z</time>
      </trkpt>
      <trkpt lat="48.36948" lon="-3.54037">
        <ele>219.8</ele>
        <time>2020-08-07T09:27:48Z</time>
      </trkpt>
      <trkpt lat="48.3695" lon="-3.54031">
        <ele>220.76</ele>
        <time>2020-08-07T09:28:01Z</time>
      </trkpt>
      <trkpt lat="48.36956" lon="-3.54019">
        <ele>220.76</ele>
        <time>2020-08-07T09:28:16Z</time>
      </trkpt>
      <trkpt lat="48.36958" lon="-3.54016">
        <ele>220.76</ele>
        <time>2020-08-07T09:28:31Z</time>
      </trkpt>
      <trkpt lat="48.36963" lon="-3.5401">
        <ele>221.72</ele>
        <time>2020-08-07T09:28:45Z</time>
      </trkpt>
      <trkpt lat="48.36965" lon="-3.54008">
        <ele>222.2</ele>
        <time>2020-08-07T09:29:00Z</time>
      </trkpt>
      <trkpt lat="48.36966" lon="-3.54004">
        <ele>221.72</ele>
        <time>2020-08-07T09:29:17Z</time>
      </trkpt>
      <trkpt lat="48.36964" lon="-3.54">
        <ele>221.72</ele>
        <time>2020-08-07T09:29:34Z</time>
      </trkpt>
      <trkpt lat="48.36966" lon="-3.5401">
        <ele>222.2</ele>
        <time>2020-08-07T09:29:49Z</time>
      </trkpt>
      <trkpt lat="48.36968" lon="-3.54015">
        <ele>222.68</ele>
        <time>2020-08-07T09:30:02Z</time>
      </trkpt>
      <trkpt lat="48.3697" lon="-3.54018">
        <ele>223.16</ele>
        <time>2020-08-07T09:30:15Z</time>
      </trkpt>
      <trkpt lat="48.3697" lon="-3.54023">
        <ele>223.64</ele>
        <time>2020-08-07T09:30:34Z</time>
      </trkpt>
      <trkpt lat="48.36967" lon="-3.54033">
        <ele>223.16</ele>
        <time>2020-08-07T09:30:47Z</time>
      </trkpt>
      <trkpt lat="48.3696" lon="-3.54043">
        <ele>222.68</ele>
        <time>2020-08-07T09:31:00Z</time>
      </trkpt>
      <trkpt lat="48.36956" lon="-3.54053">
        <ele>222.2</ele>
        <time>2020-08-07T09:31:15Z</time>
      </trkpt>
      <trkpt lat="48.36953" lon="-3.54057">
        <ele>221.72</ele>
        <time>2020-08-07T09:31:32Z</time>
      </trkpt>
      <trkpt lat="48.36949" lon="-3.54067">
        <ele>221.24</ele>
        <time>2020-08-07T09:31:44Z</time>
      </trkpt>
      <trkpt lat="48.36944" lon="-3.54074">
        <ele>220.28</ele>
        <time>2020-08-07T09:31:59Z</time>
      </trkpt>
      <trkpt lat="48.36942" lon="-3.54078">
        <ele>219.8</ele>
        <time>2020-08-07T09:32:14Z</time>
      </trkpt>
      <trkpt lat="48.36939" lon="-3.54083">
        <ele>219.32</ele>
        <time>2020-08-07T09:32:25Z</time>
      </trkpt>
      <trkpt lat="48.36937" lon="-3.54088">
        <ele>219.32</ele>
        <time>2020-08-07T09:32:44Z</time>
      </trkpt>
      <trkpt lat="48.36937" lon="-3.54095">
        <ele>219.8</ele>
        <time>2020-08-07T09:32:57Z</time>
      </trkpt>
      <trkpt lat="48.36937" lon="-3.54103">
        <ele>219.32</ele>
        <time>2020-08-07T09:33:09Z</time>
      </trkpt>
      <trkpt lat="48.36938" lon="-3.54107">
        <ele>220.28</ele>
        <time>2020-08-07T09:33:25Z</time>
      </trkpt>
      <trkpt lat="48.36939" lon="-3.54117">
        <ele>219.8</ele>
        <time>2020-08-07T09:33:40Z</time>
      </trkpt>
      <trkpt lat="48.36932" lon="-3.54123">
        <ele>218.36</ele>
        <time>2020-08-07T09:33:55Z</time>
      </trkpt>
      <trkpt lat="48.36925" lon="-3.54129">
        <ele>217.88</ele>
        <time>2020-08-07T09:34:10Z</time>
      </trkpt>
      <trkpt lat="48.36924" lon="-3.54144">
        <ele>217.88</ele>
        <time>2020-08-07T09:34:25Z</time>
      </trkpt>
      <trkpt lat="48.36929" lon="-3.54148">
        <ele>217.88</ele>
        <time>2020-08-07T09:34:37Z</time>
      </trkpt>
      <trkpt lat="48.3693" lon="-3.54147">
        <ele>217.88</ele>
        <time>2020-08-07T09:34:54Z</time>
      </trkpt>
      <trkpt lat="48.36928" lon="-3.54154">
        <ele>217.88</ele>
        <time>2020-08-07T09:35:08Z</time>
      </trkpt>
      <trkpt lat="48.36923" lon="-3.54162">
        <ele>217.88</ele>
        <time>2020-08-07T09:35:20Z</time>
      </trkpt>
      <trkpt lat="48.36918" lon="-3.54171">
        <ele>216.91</ele>
        <time>2020-08-07T09:35:34Z</time>
      </trkpt>
      <trkpt lat="48.36913" lon="-3.54176">
        <ele>216.43</ele>
        <time>2020-08-07T09:35:47Z</time>
      </trkpt>
      <trkpt lat="48.36909" lon="-3.54193">
        <ele>215.95</ele>
        <time>2020-08-07T09:36:04Z</time>
      </trkpt>
      <trkpt lat="48.36911" lon="-3.54202">
        <ele>215.95</ele>
        <time>2020-08-07T09:36:19Z</time>
      </trkpt>
      <trkpt lat="48.36917" lon="-3.54206">
        <ele>216.43</ele>
        <time>2020-08-07T09:36:38Z</time>
      </trkpt>
      <trkpt lat="48.36919" lon="-3.54205">
        <ele>216.91</ele>
        <time>2020-08-07T09:36:56Z</time>
      </trkpt>
      <trkpt lat="48.3692" lon="-3.54205">
        <ele>216.91</ele>
        <time>2020-08-07T09:37:12Z</time>
      </trkpt>
      <trkpt lat="48.36921" lon="-3.54205">
        <ele>216.91</ele>
        <time>2020-08-07T09:37:15Z</time>
      </trkpt>
      <trkpt lat="48.36931" lon="-3.54212">
        <ele>218.36</ele>
        <time>2020-08-07T09:37:30Z</time>
      </trkpt>
      <trkpt lat="48.36933" lon="-3.54215">
        <ele>218.36</ele>
        <time>2020-08-07T09:37:44Z</time>
      </trkpt>
      <trkpt lat="48.36934" lon="-3.54219">
        <ele>219.32</ele>
        <time>2020-08-07T09:37:58Z</time>
      </trkpt>
      <trkpt lat="48.36929" lon="-3.54226">
        <ele>218.84</ele>
        <time>2020-08-07T09:38:13Z</time>
      </trkpt>
      <trkpt lat="48.36929" lon="-3.54226">
        <ele>218.36</ele>
        <time>2020-08-07T09:38:41Z</time>
      </trkpt>
      <trkpt lat="48.36934" lon="-3.54221">
        <ele>218.84</ele>
        <time>2020-08-07T09:38:53Z</time>
      </trkpt>
      <trkpt lat="48.3694" lon="-3.54212">
        <ele>219.8</ele>
        <time>2020-08-07T09:39:07Z</time>
      </trkpt>
      <trkpt lat="48.36942" lon="-3.54202">
        <ele>220.28</ele>
        <time>2020-08-07T09:39:19Z</time>
      </trkpt>
      <trkpt lat="48.36944" lon="-3.54187">
        <ele>220.76</ele>
        <time>2020-08-07T09:39:34Z</time>
      </trkpt>
      <trkpt lat="48.36944" lon="-3.54173">
        <ele>220.76</ele>
        <time>2020-08-07T09:39:48Z</time>
      </trkpt>
      <trkpt lat="48.36944" lon="-3.54173">
        <ele>220.76</ele>
        <time>2020-08-07T09:40:06Z</time>
      </trkpt>
      <trkpt lat="48.36942" lon="-3.54167">
        <ele>220.76</ele>
        <time>2020-08-07T09:40:19Z</time>
      </trkpt>
      <trkpt lat="48.36944" lon="-3.54163">
        <ele>220.76</ele>
        <time>2020-08-07T09:40:43Z</time>
      </trkpt>
      <trkpt lat="48.36945" lon="-3.54165">
        <ele>221.24</ele>
        <time>2020-08-07T09:41:02Z</time>
      </trkpt>
      <trkpt lat="48.36945" lon="-3.54162">
        <ele>221.24</ele>
        <time>2020-08-07T09:41:19Z</time>
      </trkpt>
      <trkpt lat="48.36945" lon="-3.54158">
        <ele>221.24</ele>
        <time>2020-08-07T09:41:25Z</time>
      </trkpt>
      <trkpt lat="48.36942" lon="-3.54142">
        <ele>220.76</ele>
        <time>2020-08-07T09:41:39Z</time>
      </trkpt>
      <trkpt lat="48.36946" lon="-3.54134">
        <ele>221.72</ele>
        <time>2020-08-07T09:41:54Z</time>
      </trkpt>
      <trkpt lat="48.36948" lon="-3.5413">
        <ele>221.72</ele>
        <time>2020-08-07T09:41:59Z</time>
      </trkpt>
      <trkpt lat="48.3695" lon="-3.54126">
        <ele>220.28</ele>
        <time>2020-08-07T09:42:08Z</time>
      </trkpt>
      <trkpt lat="48.3695" lon="-3.54125">
        <ele>221.72</ele>
        <time>2020-08-07T09:42:24Z</time>
      </trkpt>
      <trkpt lat="48.36953" lon="-3.54118">
        <ele>222.68</ele>
        <time>2020-08-07T09:42:38Z</time>
      </trkpt>
      <trkpt lat="48.36955" lon="-3.54108">
        <ele>222.68</ele>
        <time>2020-08-07T09:42:56Z</time>
      </trkpt>
      <trkpt lat="48.36958" lon="-3.54101">
        <ele>223.16</ele>
        <time>2020-08-07T09:43:05Z</time>
      </trkpt>
      <trkpt lat="48.36962" lon="-3.54087">
        <ele>223.64</ele>
        <time>2020-08-07T09:43:18Z</time>
      </trkpt>
      <trkpt lat="48.36965" lon="-3.54081">
        <ele>224.12</ele>
        <time>2020-08-07T09:43:33Z</time>
      </trkpt>
      <trkpt lat="48.36968" lon="-3.54073">
        <ele>224.12</ele>
        <time>2020-08-07T09:43:42Z</time>
      </trkpt>
      <trkpt lat="48.36976" lon="-3.54059">
        <ele>225.09</ele>
        <time>2020-08-07T09:43:56Z</time>
      </trkpt>
      <trkpt lat="48.3698" lon="-3.54049">
        <ele>225.09</ele>
        <time>2020-08-07T09:44:09Z</time>
      </trkpt>
      <trkpt lat="48.36981" lon="-3.54048">
        <ele>225.57</ele>
        <time>2020-08-07T09:44:11Z</time>
      </trkpt>
      <trkpt lat="48.36986" lon="-3.54038">
        <ele>226.53</ele>
        <time>2020-08-07T09:44:25Z</time>
      </trkpt>
      <trkpt lat="48.36988" lon="-3.54031">
        <ele>226.05</ele>
        <time>2020-08-07T09:44:39Z</time>
      </trkpt>
      <trkpt lat="48.36991" lon="-3.54036">
        <ele>227.01</ele>
        <time>2020-08-07T09:44:52Z</time>
      </trkpt>
      <trkpt lat="48.36995" lon="-3.54039">
        <ele>227.49</ele>
        <time>2020-08-07T09:45:04Z</time>
      </trkpt>
      <trkpt lat="48.36996" lon="-3.54037">
        <ele>227.49</ele>
        <time>2020-08-07T09:45:20Z</time>
      </trkpt>
      <trkpt lat="48.36996" lon="-3.54038">
        <ele>227.49</ele>
        <time>2020-08-07T09:45:36Z</time>
      </trkpt>
      <trkpt lat="48.36993" lon="-3.54047">
        <ele>227.01</ele>
        <time>2020-08-07T09:45:44Z</time>
      </trkpt>
      <trkpt lat="48.36991" lon="-3.54065">
        <ele>227.49</ele>
        <time>2020-08-07T09:46:00Z</time>
      </trkpt>
      <trkpt lat="48.36988" lon="-3.54073">
        <ele>227.97</ele>
        <time>2020-08-07T09:46:12Z</time>
      </trkpt>
      <trkpt lat="48.36988" lon="-3.54078">
        <ele>227.49</ele>
        <time>2020-08-07T09:46:15Z</time>
      </trkpt>
      <trkpt lat="48.36987" lon="-3.54082">
        <ele>227.49</ele>
        <time>2020-08-07T09:46:18Z</time>
      </trkpt>
      <trkpt lat="48.36985" lon="-3.54089">
        <ele>227.01</ele>
        <time>2020-08-07T09:46:24Z</time>
      </trkpt>
      <trkpt lat="48.36982" lon="-3.54106">
        <ele>227.01</ele>
        <time>2020-08-07T09:46:37Z</time>
      </trkpt>
      <trkpt lat="48.36979" lon="-3.54122">
        <ele>226.53</ele>
        <time>2020-08-07T09:46:50Z</time>
      </trkpt>
      <trkpt lat="48.36981" lon="-3.54129">
        <ele>226.05</ele>
        <time>2020-08-07T09:47:02Z</time>
      </trkpt>
      <trkpt lat="48.36979" lon="-3.54147">
        <ele>226.05</ele>
        <time>2020-08-07T09:47:18Z</time>
      </trkpt>
      <trkpt lat="48.36979" lon="-3.54153">
        <ele>225.57</ele>
        <time>2020-08-07T09:47:34Z</time>
      </trkpt>
      <trkpt lat="48.36977" lon="-3.54159">
        <ele>225.57</ele>
        <time>2020-08-07T09:47:46Z</time>
      </trkpt>
      <trkpt lat="48.36976" lon="-3.54164">
        <ele>225.57</ele>
        <time>2020-08-07T09:47:59Z</time>
      </trkpt>
      <trkpt lat="48.36975" lon="-3.54179">
        <ele>224.61</ele>
        <time>2020-08-07T09:48:12Z</time>
      </trkpt>
      <trkpt lat="48.36972" lon="-3.54187">
        <ele>224.61</ele>
        <time>2020-08-07T09:48:23Z</time>
      </trkpt>
      <trkpt lat="48.36969" lon="-3.54191">
        <ele>224.61</ele>
        <time>2020-08-07T09:48:34Z</time>
      </trkpt>
      <trkpt lat="48.36968" lon="-3.542">
        <ele>224.12</ele>
        <time>2020-08-07T09:48:50Z</time>
      </trkpt>
      <trkpt lat="48.36965" lon="-3.54213">
        <ele>223.64</ele>
        <time>2020-08-07T09:49:03Z</time>
      </trkpt>
      <trkpt lat="48.36965" lon="-3.54222">
        <ele>223.64</ele>
        <time>2020-08-07T09:49:12Z</time>
      </trkpt>
      <trkpt lat="48.36966" lon="-3.54234">
        <ele>223.16</ele>
        <time>2020-08-07T09:49:24Z</time>
      </trkpt>
      <trkpt lat="48.36966" lon="-3.54242">
        <ele>223.16</ele>
        <time>2020-08-07T09:49:36Z</time>
      </trkpt>
      <trkpt lat="48.36967" lon="-3.54244">
        <ele>223.16</ele>
        <time>2020-08-07T09:50:02Z</time>
      </trkpt>
      <trkpt lat="48.36967" lon="-3.54244">
        <ele>223.16</ele>
        <time>2020-08-07T09:50:23Z</time>
      </trkpt>
      <trkpt lat="48.36971" lon="-3.54245">
        <ele>223.64</ele>
        <time>2020-08-07T09:50:40Z</time>
      </trkpt>
      <trkpt lat="48.36977" lon="-3.5424">
        <ele>225.09</ele>
        <time>2020-08-07T09:50:53Z</time>
      </trkpt>
      <trkpt lat="48.36979" lon="-3.54233">
        <ele>225.09</ele>
        <time>2020-08-07T09:50:59Z</time>
      </trkpt>
      <trkpt lat="48.36984" lon="-3.54221">
        <ele>226.05</ele>
        <time>2020-08-07T09:51:12Z</time>
      </trkpt>
      <trkpt lat="48.3699" lon="-3.54212">
        <ele>226.53</ele>
        <time>2020-08-07T09:51:26Z</time>
      </trkpt>
      <trkpt lat="48.36991" lon="-3.54212">
        <ele>227.01</ele>
        <time>2020-08-07T09:51:44Z</time>
      </trkpt>
      <trkpt lat="48.36995" lon="-3.54203">
        <ele>227.97</ele>
        <time>2020-08-07T09:51:57Z</time>
      </trkpt>
      <trkpt lat="48.36998" lon="-3.54197">
        <ele>228.45</ele>
        <time>2020-08-07T09:52:12Z</time>
      </trkpt>
      <trkpt lat="48.37002" lon="-3.54185">
        <ele>228.93</ele>
        <time>2020-08-07T09:52:25Z</time>
      </trkpt>
      <trkpt lat="48.37003" lon="-3.54175">
        <ele>229.41</ele>
        <time>2020-08-07T09:52:37Z</time>
      </trkpt>
      <trkpt lat="48.37004" lon="-3.54166">
        <ele>228.93</ele>
        <time>2020-08-07T09:52:49Z</time>
      </trkpt>
      <trkpt lat="48.37004" lon="-3.54162">
        <ele>229.89</ele>
        <time>2020-08-07T09:52:55Z</time>
      </trkpt>
      <trkpt lat="48.37002" lon="-3.54149">
        <ele>229.41</ele>
        <time>2020-08-07T09:53:09Z</time>
      </trkpt>
      <trkpt lat="48.37003" lon="-3.54143">
        <ele>230.37</ele>
        <time>2020-08-07T09:53:20Z</time>
      </trkpt>
      <trkpt lat="48.37006" lon="-3.54136">
        <ele>230.37</ele>
        <time>2020-08-07T09:53:33Z</time>
      </trkpt>
      <trkpt lat="48.37009" lon="-3.54131">
        <ele>230.85</ele>
        <time>2020-08-07T09:53:46Z</time>
      </trkpt>
      <trkpt lat="48.3701" lon="-3.54127">
        <ele>230.37</ele>
        <time>2020-08-07T09:54:09Z</time>
      </trkpt>
      <trkpt lat="48.3701" lon="-3.54114">
        <ele>230.85</ele>
        <time>2020-08-07T09:54:23Z</time>
      </trkpt>
      <trkpt lat="48.37013" lon="-3.54106">
        <ele>230.85</ele>
        <time>2020-08-07T09:54:34Z</time>
      </trkpt>
      <trkpt lat="48.37019" lon="-3.54097">
        <ele>231.33</ele>
        <time>2020-08-07T09:54:48Z</time>
      </trkpt>
      <trkpt lat="48.37023" lon="-3.54095">
        <ele>231.81</ele>
        <time>2020-08-07T09:55:05Z</time>
      </trkpt>
      <trkpt lat="48.3703" lon="-3.54088">
        <ele>232.78</ele>
        <time>2020-08-07T09:55:19Z</time>
      </trkpt>
      <trkpt lat="48.37037" lon="-3.54088">
        <ele>233.74</ele>
        <time>2020-08-07T09:55:31Z</time>
      </trkpt>
      <trkpt lat="48.3704" lon="-3.54095">
        <ele>234.22</ele>
        <time>2020-08-07T09:55:43Z</time>
      </trkpt>
      <trkpt lat="48.37039" lon="-3.54108">
        <ele>233.26</ele>
        <time>2020-08-07T09:55:55Z</time>
      </trkpt>
      <trkpt lat="48.37039" lon="-3.54115">
        <ele>233.74</ele>
        <time>2020-08-07T09:56:00Z</time>
      </trkpt>
      <trkpt lat="48.37041" lon="-3.54124">
        <ele>234.22</ele>
        <time>2020-08-07T09:56:12Z</time>
      </trkpt>
      <trkpt lat="48.37044" lon="-3.54128">
        <ele>234.22</ele>
        <time>2020-08-07T09:56:25Z</time>
      </trkpt>
      <trkpt lat="48.37044" lon="-3.54133">
        <ele>234.22</ele>
        <time>2020-08-07T09:56:38Z</time>
      </trkpt>
      <trkpt lat="48.37045" lon="-3.54143">
        <ele>234.22</ele>
        <time>2020-08-07T09:56:50Z</time>
      </trkpt>
      <trkpt lat="48.37046" lon="-3.54157">
        <ele>233.74</ele>
        <time>2020-08-07T09:57:04Z</time>
      </trkpt>
      <trkpt lat="48.37046" lon="-3.5416">
        <ele>233.74</ele>
        <time>2020-08-07T09:57:22Z</time>
      </trkpt>
      <trkpt lat="48.37046" lon="-3.54169">
        <ele>233.26</ele>
        <time>2020-08-07T09:57:35Z</time>
      </trkpt>
      <trkpt lat="48.37048" lon="-3.54177">
        <ele>232.78</ele>
        <time>2020-08-07T09:57:48Z</time>
      </trkpt>
      <trkpt lat="48.37048" lon="-3.54192">
        <ele>232.78</ele>
        <time>2020-08-07T09:58:01Z</time>
      </trkpt>
      <trkpt lat="48.37047" lon="-3.54196">
        <ele>232.3</ele>
        <time>2020-08-07T09:58:13Z</time>
      </trkpt>
      <trkpt lat="48.37047" lon="-3.54201">
        <ele>232.3</ele>
        <time>2020-08-07T09:58:26Z</time>
      </trkpt>
      <trkpt lat="48.37047" lon="-3.54211">
        <ele>231.81</ele>
        <time>2020-08-07T09:58:38Z</time>
      </trkpt>
      <trkpt lat="48.37046" lon="-3.54214">
        <ele>231.33</ele>
        <time>2020-08-07T09:58:51Z</time>
      </trkpt>
      <trkpt lat="48.3704" lon="-3.54228">
        <ele>230.85</ele>
        <time>2020-08-07T09:59:04Z</time>
      </trkpt>
      <trkpt lat="48.37038" lon="-3.54232">
        <ele>230.85</ele>
        <time>2020-08-07T09:59:15Z</time>
      </trkpt>
      <trkpt lat="48.37036" lon="-3.5424">
        <ele>230.37</ele>
        <time>2020-08-07T09:59:26Z</time>
      </trkpt>
      <trkpt lat="48.37028" lon="-3.54247">
        <ele>229.41</ele>
        <time>2020-08-07T09:59:39Z</time>
      </trkpt>
      <trkpt lat="48.37025" lon="-3.54251">
        <ele>229.41</ele>
        <time>2020-08-07T09:59:45Z</time>
      </trkpt>
      <trkpt lat="48.37016" lon="-3.54257">
        <ele>228.45</ele>
        <time>2020-08-07T09:59:59Z</time>
      </trkpt>
      <trkpt lat="48.37008" lon="-3.54263">
        <ele>227.49</ele>
        <time>2020-08-07T10:00:11Z</time>
      </trkpt>
      <trkpt lat="48.37003" lon="-3.54271">
        <ele>227.49</ele>
        <time>2020-08-07T10:00:23Z</time>
      </trkpt>
      <trkpt lat="48.37007" lon="-3.5427">
        <ele>227.49</ele>
        <time>2020-08-07T10:00:41Z</time>
      </trkpt>
      <trkpt lat="48.37011" lon="-3.54268">
        <ele>227.49</ele>
        <time>2020-08-07T10:00:58Z</time>
      </trkpt>
      <trkpt lat="48.37021" lon="-3.5427">
        <ele>227.97</ele>
        <time>2020-08-07T10:01:11Z</time>
      </trkpt>
      <trkpt lat="48.3703" lon="-3.54269">
        <ele>228.93</ele>
        <time>2020-08-07T10:01:24Z</time>
      </trkpt>
      <trkpt lat="48.37035" lon="-3.54261">
        <ele>228.93</ele>
        <time>2020-08-07T10:01:37Z</time>
      </trkpt>
      <trkpt lat="48.37039" lon="-3.54255">
        <ele>229.89</ele>
        <time>2020-08-07T10:01:50Z</time>
      </trkpt>
      <trkpt lat="48.37043" lon="-3.54251">
        <ele>230.37</ele>
        <time>2020-08-07T10:01:56Z</time>
      </trkpt>
      <trkpt lat="48.37046" lon="-3.54248">
        <ele>230.85</ele>
        <time>2020-08-07T10:02:00Z</time>
      </trkpt>
      <trkpt lat="48.37053" lon="-3.54241">
        <ele>231.33</ele>
        <time>2020-08-07T10:02:13Z</time>
      </trkpt>
      <trkpt lat="48.37061" lon="-3.54233">
        <ele>232.3</ele>
        <time>2020-08-07T10:02:26Z</time>
      </trkpt>
      <trkpt lat="48.37065" lon="-3.54221">
        <ele>232.78</ele>
        <time>2020-08-07T10:02:39Z</time>
      </trkpt>
      <trkpt lat="48.37069" lon="-3.54211">
        <ele>233.74</ele>
        <time>2020-08-07T10:02:51Z</time>
      </trkpt>
      <trkpt lat="48.37073" lon="-3.54202">
        <ele>233.74</ele>
        <time>2020-08-07T10:03:04Z</time>
      </trkpt>
      <trkpt lat="48.37075" lon="-3.54198">
        <ele>234.22</ele>
        <time>2020-08-07T10:03:19Z</time>
      </trkpt>
      <trkpt lat="48.37077" lon="-3.54191">
        <ele>235.18</ele>
        <time>2020-08-07T10:03:34Z</time>
      </trkpt>
      <trkpt lat="48.3708" lon="-3.54176">
        <ele>235.18</ele>
        <time>2020-08-07T10:03:48Z</time>
      </trkpt>
      <trkpt lat="48.37083" lon="-3.54167">
        <ele>235.66</ele>
        <time>2020-08-07T10:04:01Z</time>
      </trkpt>
      <trkpt lat="48.37085" lon="-3.54165">
        <ele>236.14</ele>
        <time>2020-08-07T10:04:22Z</time>
      </trkpt>
      <trkpt lat="48.37089" lon="-3.54163">
        <ele>235.66</ele>
        <time>2020-08-07T10:04:34Z</time>
      </trkpt>
      <trkpt lat="48.3709" lon="-3.54153">
        <ele>236.14</ele>
        <time>2020-08-07T10:04:47Z</time>
      </trkpt>
      <trkpt lat="48.37085" lon="-3.54137">
        <ele>236.62</ele>
        <time>2020-08-07T10:05:00Z</time>
      </trkpt>
      <trkpt lat="48.37078" lon="-3.54135">
        <ele>236.62</ele>
        <time>2020-08-07T10:05:12Z</time>
      </trkpt>
      <trkpt lat="48.37079" lon="-3.54131">
        <ele>236.62</ele>
        <time>2020-08-07T10:05:23Z</time>
      </trkpt>
      <trkpt lat="48.3708" lon="-3.54125">
        <ele>236.62</ele>
        <time>2020-08-07T10:05:35Z</time>
      </trkpt>
      <trkpt lat="48.37084" lon="-3.54125">
        <ele>236.62</ele>
        <time>2020-08-07T10:05:50Z</time>
      </trkpt>
      <trkpt lat="48.37085" lon="-3.54122">
        <ele>236.62</ele>
        <time>2020-08-07T10:06:01Z</time>
      </trkpt>
      <trkpt lat="48.37088" lon="-3.54126">
        <ele>236.62</ele>
        <time>2020-08-07T10:06:16Z</time>
      </trkpt>
      <trkpt lat="48.37096" lon="-3.54134">
        <ele>237.1</ele>
        <time>2020-08-07T10:06:28Z</time>
      </trkpt>
      <trkpt lat="48.37101" lon="-3.54141">
        <ele>237.1</ele>
        <time>2020-08-07T10:06:39Z</time>
      </trkpt>
      <trkpt lat="48.37102" lon="-3.54148">
        <ele>236.62</ele>
        <time>2020-08-07T10:06:53Z</time>
      </trkpt>
      <trkpt lat="48.371" lon="-3.54162">
        <ele>237.1</ele>
        <time>2020-08-07T10:07:07Z</time>
      </trkpt>
      <trkpt lat="48.37095" lon="-3.54172">
        <ele>236.62</ele>
        <time>2020-08-07T10:07:20Z</time>
      </trkpt>
      <trkpt lat="48.37095" lon="-3.54184">
        <ele>236.14</ele>
        <time>2020-08-07T10:07:34Z</time>
      </trkpt>
      <trkpt lat="48.37096" lon="-3.54196">
        <ele>236.14</ele>
        <time>2020-08-07T10:07:46Z</time>
      </trkpt>
      <trkpt lat="48.37097" lon="-3.542">
        <ele>235.18</ele>
        <time>2020-08-07T10:07:56Z</time>
      </trkpt>
      <trkpt lat="48.37097" lon="-3.54205">
        <ele>235.18</ele>
        <time>2020-08-07T10:08:11Z</time>
      </trkpt>
      <trkpt lat="48.37099" lon="-3.54211">
        <ele>234.22</ele>
        <time>2020-08-07T10:08:24Z</time>
      </trkpt>
      <trkpt lat="48.371" lon="-3.54217">
        <ele>234.7</ele>
        <time>2020-08-07T10:08:38Z</time>
      </trkpt>
      <trkpt lat="48.37101" lon="-3.54218">
        <ele>234.7</ele>
        <time>2020-08-07T10:08:54Z</time>
      </trkpt>
      <trkpt lat="48.37103" lon="-3.54221">
        <ele>234.7</ele>
        <time>2020-08-07T10:09:09Z</time>
      </trkpt>
      <trkpt lat="48.37107" lon="-3.54229">
        <ele>233.74</ele>
        <time>2020-08-07T10:09:21Z</time>
      </trkpt>
      <trkpt lat="48.37112" lon="-3.5424">
        <ele>233.26</ele>
        <time>2020-08-07T10:09:34Z</time>
      </trkpt>
      <trkpt lat="48.37113" lon="-3.54243">
        <ele>233.26</ele>
        <time>2020-08-07T10:09:48Z</time>
      </trkpt>
      <trkpt lat="48.37122" lon="-3.54233">
        <ele>233.26</ele>
        <time>2020-08-07T10:10:04Z</time>
      </trkpt>
      <trkpt lat="48.37124" lon="-3.54222">
        <ele>233.74</ele>
        <time>2020-08-07T10:10:17Z</time>
      </trkpt>
      <trkpt lat="48.37124" lon="-3.54216">
        <ele>233.26</ele>
        <time>2020-08-07T10:10:31Z</time>
      </trkpt>
      <trkpt lat="48.3712" lon="-3.54224">
        <ele>233.74</ele>
        <time>2020-08-07T10:10:43Z</time>
      </trkpt>
      <trkpt lat="48.37117" lon="-3.54227">
        <ele>233.74</ele>
        <time>2020-08-07T10:10:58Z</time>
      </trkpt>
      <trkpt lat="48.37114" lon="-3.54225">
        <ele>234.22</ele>
        <time>2020-08-07T10:11:10Z</time>
      </trkpt>
      <trkpt lat="48.37116" lon="-3.54228">
        <ele>233.74</ele>
        <time>2020-08-07T10:11:24Z</time>
      </trkpt>
      <trkpt lat="48.37126" lon="-3.54239">
        <ele>232.3</ele>
        <time>2020-08-07T10:11:39Z</time>
      </trkpt>
      <trkpt lat="48.37131" lon="-3.54245">
        <ele>231.33</ele>
        <time>2020-08-07T10:11:50Z</time>
      </trkpt>
      <trkpt lat="48.37138" lon="-3.54243">
        <ele>230.85</ele>
        <time>2020-08-07T10:12:04Z</time>
      </trkpt>
      <trkpt lat="48.3714" lon="-3.54232">
        <ele>231.81</ele>
        <time>2020-08-07T10:12:17Z</time>
      </trkpt>
      <trkpt lat="48.37139" lon="-3.54215">
        <ele>232.3</ele>
        <time>2020-08-07T10:12:31Z</time>
      </trkpt>
      <trkpt lat="48.37138" lon="-3.54205">
        <ele>232.78</ele>
        <time>2020-08-07T10:12:42Z</time>
      </trkpt>
      <trkpt lat="48.37139" lon="-3.54191">
        <ele>232.3</ele>
        <time>2020-08-07T10:12:54Z</time>
      </trkpt>
      <trkpt lat="48.37144" lon="-3.54173">
        <ele>232.3</ele>
        <time>2020-08-07T10:13:07Z</time>
      </trkpt>
      <trkpt lat="48.37147" lon="-3.54159">
        <ele>231.81</ele>
        <time>2020-08-07T10:13:22Z</time>
      </trkpt>
      <trkpt lat="48.3715" lon="-3.54162">
        <ele>230.85</ele>
        <time>2020-08-07T10:13:34Z</time>
      </trkpt>
      <trkpt lat="48.37158" lon="-3.54162">
        <ele>229.41</ele>
        <time>2020-08-07T10:13:45Z</time>
      </trkpt>
      <trkpt lat="48.3716" lon="-3.54161">
        <ele>229.89</ele>
        <time>2020-08-07T10:14:00Z</time>
      </trkpt>
      <trkpt lat="48.3716" lon="-3.54162">
        <ele>228.93</ele>
        <time>2020-08-07T10:14:14Z</time>
      </trkpt>
      <trkpt lat="48.37161" lon="-3.54164">
        <ele>229.41</ele>
        <time>2020-08-07T10:14:33Z</time>
      </trkpt>
      <trkpt lat="48.37162" lon="-3.54165">
        <ele>229.41</ele>
        <time>2020-08-07T10:14:46Z</time>
      </trkpt>
      <trkpt lat="48.37163" lon="-3.54166">
        <ele>229.41</ele>
        <time>2020-08-07T10:15:16Z</time>
      </trkpt>
      <trkpt lat="48.37168" lon="-3.54172">
        <ele>228.93</ele>
        <time>2020-08-07T10:15:34Z</time>
      </trkpt>
      <trkpt lat="48.37172" lon="-3.54182">
        <ele>228.93</ele>
        <time>2020-08-07T10:15:48Z</time>
      </trkpt>
      <trkpt lat="48.37174" lon="-3.54185">
        <ele>228.93</ele>
        <time>2020-08-07T10:16:14Z</time>
      </trkpt>
      <trkpt lat="48.37175" lon="-3.54184">
        <ele>228.45</ele>
        <time>2020-08-07T10:16:35Z</time>
      </trkpt>
      <trkpt lat="48.37175" lon="-3.54182">
        <ele>229.41</ele>
        <time>2020-08-07T10:16:47Z</time>
      </trkpt>
      <trkpt lat="48.37176" lon="-3.54183">
        <ele>229.41</ele>
        <time>2020-08-07T10:17:10Z</time>
      </trkpt>
      <trkpt lat="48.37175" lon="-3.54186">
        <ele>229.89</ele>
        <time>2020-08-07T10:17:35Z</time>
      </trkpt>
      <trkpt lat="48.37176" lon="-3.54189">
        <ele>230.37</ele>
        <time>2020-08-07T10:17:46Z</time>
      </trkpt>
      <trkpt lat="48.37173" lon="-3.54192">
        <ele>227.01</ele>
        <time>2020-08-07T10:17:53Z</time>
      </trkpt>
      <trkpt lat="48.37173" lon="-3.54192">
        <ele>230.37</ele>
        <time>2020-08-07T10:17:54Z</time>
      </trkpt>
      <trkpt lat="48.3717" lon="-3.54198">
        <ele>230.37</ele>
        <time>2020-08-07T10:18:04Z</time>
      </trkpt>
      <trkpt lat="48.37169" lon="-3.542">
        <ele>230.37</ele>
        <time>2020-08-07T10:18:23Z</time>
      </trkpt>
      <trkpt lat="48.37172" lon="-3.54203">
        <ele>229.89</ele>
        <time>2020-08-07T10:18:40Z</time>
      </trkpt>
      <trkpt lat="48.37172" lon="-3.54204">
        <ele>230.37</ele>
        <time>2020-08-07T10:18:59Z</time>
      </trkpt>
      <trkpt lat="48.37166" lon="-3.54197">
        <ele>230.37</ele>
        <time>2020-08-07T10:19:20Z</time>
      </trkpt>
      <trkpt lat="48.37168" lon="-3.54199">
        <ele>230.37</ele>
        <time>2020-08-07T10:19:38Z</time>
      </trkpt>
      <trkpt lat="48.37161" lon="-3.54225">
        <ele>229.89</ele>
        <time>2020-08-07T10:20:00Z</time>
      </trkpt>
      <trkpt lat="48.37157" lon="-3.54203">
        <ele>230.37</ele>
        <time>2020-08-07T10:20:32Z</time>
      </trkpt>
      <trkpt lat="48.3716" lon="-3.54187">
        <ele>230.37</ele>
        <time>2020-08-07T10:20:51Z</time>
      </trkpt>
      <trkpt lat="48.37156" lon="-3.54178">
        <ele>230.37</ele>
        <time>2020-08-07T10:21:10Z</time>
      </trkpt>
      <trkpt lat="48.37153" lon="-3.54169">
        <ele>230.37</ele>
        <time>2020-08-07T10:21:33Z</time>
      </trkpt>
      <trkpt lat="48.37155" lon="-3.54174">
        <ele>230.37</ele>
        <time>2020-08-07T10:21:39Z</time>
      </trkpt>
      <trkpt lat="48.37159" lon="-3.54184">
        <ele>230.37</ele>
        <time>2020-08-07T10:21:43Z</time>
      </trkpt>
      <trkpt lat="48.37165" lon="-3.54208">
        <ele>229.89</ele>
        <time>2020-08-07T10:22:02Z</time>
      </trkpt>
      <trkpt lat="48.37179" lon="-3.54208">
        <ele>230.37</ele>
        <time>2020-08-07T10:22:21Z</time>
      </trkpt>
    </trkseg>
  </trk>
</gpx>